createdAt,value
2023-04-02T00:02:34.637Z,101151.75
2023-04-02T00:05:51.364Z,101170.41
2023-04-02T00:08:23.395Z,101170.81
2023-04-02T00:10:52.891Z,101179.81
2023-04-02T00:13:26.804Z,101182.16
2023-04-02T00:15:58.152Z,101182.59
2023-04-02T00:18:28.025Z,101186.50
2023-04-02T00:21:12.356Z,101190.03
2023-04-02T00:23:41.891Z,101191.28
2023-04-02T00:26:23.074Z,101194.00
2023-04-02T00:28:51.966Z,101194.34
2023-04-02T00:31:21.223Z,101197.47
2023-04-02T00:33:51.023Z,101201.44
2023-04-02T00:36:22.513Z,101208.38
2023-04-02T00:38:50.623Z,101219.22
2023-04-02T00:41:23.579Z,101218.13
2023-04-02T00:43:54.568Z,101227.09
2023-04-02T00:46:27.660Z,101237.50
2023-04-02T00:49:00.568Z,101234.81
2023-04-02T00:51:35.976Z,101245.66
2023-04-02T00:54:07.542Z,101244.53
2023-04-02T00:56:41.895Z,101247.69
2023-04-02T00:59:20.637Z,101254.69
2023-04-02T01:01:54.235Z,101265.97
2023-04-02T01:04:34.792Z,101265.59
2023-04-02T01:07:08.691Z,101271.03
2023-04-02T01:10:01.148Z,101273.78
2023-04-02T01:12:45.746Z,101272.69
2023-04-02T01:15:19.520Z,101277.00
2023-04-02T01:18:03.494Z,101284.34
2023-04-02T01:20:56.342Z,101297.56
2023-04-02T01:23:32.120Z,101296.06
2023-04-02T01:26:10.613Z,101297.59
2023-04-02T01:28:54.707Z,101302.66
2023-04-02T01:31:25.669Z,101308.09
2023-04-02T01:33:53.675Z,101314.75
2023-04-02T01:36:33.293Z,101311.69
2023-04-02T01:39:12.340Z,101322.53
2023-04-02T01:41:48.834Z,101326.81
2023-04-02T01:44:24.530Z,101334.53
2023-04-02T01:46:53.524Z,101326.06
2023-04-02T01:49:22.917Z,101338.44
2023-04-02T01:51:54.865Z,101340.41
2023-04-02T01:54:23.605Z,101344.31
2023-04-02T01:56:52.765Z,101350.56
2023-04-02T01:59:26.526Z,101357.16
2023-04-02T02:02:03.373Z,101365.69
2023-04-02T02:04:33.866Z,101369.59
2023-04-02T02:07:03.421Z,101377.72
2023-04-02T02:09:35.771Z,101383.53
2023-04-02T02:12:05.352Z,101373.47
2023-04-02T02:14:34.987Z,101384.72
2023-04-02T02:17:04.296Z,101392.88
2023-04-02T02:19:37.665Z,101390.97
2023-04-02T02:22:13.278Z,101395.59
2023-04-02T02:24:42.131Z,101406.03
2023-04-02T02:27:43.508Z,101409.56
2023-04-02T02:30:19.526Z,101406.97
2023-04-02T02:32:53.867Z,101408.22
2023-04-02T02:35:27.344Z,101420.66
2023-04-02T02:38:03.565Z,101423.41
2023-04-02T02:40:39.949Z,101428.91
2023-04-02T02:43:13.148Z,101429.34
2023-04-02T02:45:44.323Z,101440.25
2023-04-02T02:48:14.725Z,101442.97
2023-04-02T02:50:44.127Z,101445.28
2023-04-02T02:53:20.097Z,101449.16
2023-04-02T02:55:52.003Z,101451.88
2023-04-02T02:58:27.483Z,101461.56
2023-04-02T03:01:06.177Z,101467.84
2023-04-02T03:03:36.193Z,101462.41
2023-04-02T03:06:09.018Z,101477.53
2023-04-02T03:08:43.006Z,101481.41
2023-04-02T03:11:20.213Z,101486.47
2023-04-02T03:13:53.096Z,101492.69
2023-04-02T03:16:29.483Z,101498.13
2023-04-02T03:19:03.350Z,101504.31
2023-04-02T03:21:37.329Z,101508.97
2023-04-02T03:24:13.325Z,101515.19
2023-04-02T03:26:45.206Z,101514.44
2023-04-02T03:29:18.389Z,101524.91
2023-04-02T03:31:50.498Z,101531.50
2023-04-02T03:34:23.754Z,101535.34
2023-04-02T03:36:57.776Z,101543.88
2023-04-02T03:39:33.371Z,101548.53
2023-04-02T03:42:06.774Z,101545.84
2023-04-02T03:44:39.485Z,101560.19
2023-04-02T03:47:16.169Z,101562.53
2023-04-02T03:49:49.806Z,101572.97
2023-04-02T03:52:23.646Z,101574.16
2023-04-02T03:54:53.942Z,101582.28
2023-04-02T03:57:28.024Z,101584.59
2023-04-02T04:00:04.821Z,101584.59
2023-04-02T04:02:46.846Z,101584.19
2023-04-02T04:05:24.262Z,101599.28
2023-04-02T04:07:58.195Z,101607.41
2023-04-02T04:10:27.257Z,101608.16
2023-04-02T04:12:58.796Z,101619.78
2023-04-02T04:15:30.053Z,101623.25
2023-04-02T04:18:02.474Z,101626.75
2023-04-02T04:20:46.152Z,101637.59
2023-04-02T04:23:25.759Z,101639.53
2023-04-02T04:25:59.808Z,101642.66
2023-04-02T04:28:38.269Z,101655.44
2023-04-02T04:31:21.118Z,101658.56
2023-04-02T04:34:05.622Z,101657.03
2023-04-02T04:36:53.875Z,101678.28
2023-04-02T04:39:31.697Z,101674.44
2023-04-02T04:42:02.586Z,101679.09
2023-04-02T04:44:43.037Z,101675.66
2023-04-02T04:47:16.916Z,101688.41
2023-04-02T04:49:50.709Z,101698.09
2023-04-02T04:52:23.105Z,101701.97
2023-04-02T04:54:59.203Z,101707.00
2023-04-02T04:57:32.310Z,101715.09
2023-04-02T05:00:08.049Z,101723.97
2023-04-02T05:02:46.331Z,101726.66
2023-04-02T05:05:22.024Z,101732.84
2023-04-02T05:07:59.162Z,101735.97
2023-04-02T05:10:36.210Z,101747.94
2023-04-02T05:13:08.596Z,101756.44
2023-04-02T05:15:42.447Z,101762.25
2023-04-02T05:18:23.649Z,101764.22
2023-04-02T05:20:58.847Z,101775.81
2023-04-02T05:23:30.655Z,101780.03
2023-04-02T05:26:06.627Z,101791.22
2023-04-02T05:28:41.904Z,101798.19
2023-04-02T05:31:15.651Z,101796.25
2023-04-02T05:33:48.337Z,101803.97
2023-04-02T05:36:23.572Z,101809.75
2023-04-02T05:38:57.217Z,101812.44
2023-04-02T05:41:38.242Z,101820.53
2023-04-02T05:44:13.184Z,101827.88
2023-04-02T05:46:48.157Z,101827.47
2023-04-02T05:49:22.668Z,101830.16
2023-04-02T05:51:57.745Z,101838.25
2023-04-02T05:54:32.281Z,101843.22
2023-04-02T05:57:04.559Z,101853.25
2023-04-02T05:59:38.695Z,101862.91
2023-04-02T06:02:09.730Z,101867.13
2023-04-02T06:04:47.306Z,101875.59
2023-04-02T06:07:21.457Z,101874.81
2023-04-02T06:09:57.925Z,101896.00
2023-04-02T06:12:33.052Z,101892.50
2023-04-02T06:15:01.957Z,101899.47
2023-04-02T06:17:44.416Z,101912.53
2023-04-02T06:20:17.788Z,101922.16
2023-04-02T06:22:52.365Z,101931.44
2023-04-02T06:25:25.103Z,101938.34
2023-04-02T06:27:57.709Z,101943.34
2023-04-02T06:30:29.133Z,101939.13
2023-04-02T06:32:57.524Z,101943.38
2023-04-02T06:35:26.702Z,101959.97
2023-04-02T06:38:05.065Z,101960.38
2023-04-02T06:40:50.778Z,101961.91
2023-04-02T06:43:36.230Z,101965.78
2023-04-02T06:46:23.779Z,101964.63
2023-04-02T06:49:07.611Z,101968.47
2023-04-02T06:51:39.176Z,101971.16
2023-04-02T06:54:14.902Z,101974.63
2023-04-02T06:56:46.155Z,101985.47
2023-04-02T06:59:18.748Z,101990.50
2023-04-02T07:01:50.128Z,101996.25
2023-04-02T07:04:19.383Z,102008.25
2023-04-02T07:06:51.728Z,102010.56
2023-04-02T07:09:22.486Z,102015.59
2023-04-02T07:11:54.537Z,102030.66
2023-04-02T07:14:22.396Z,102031.81
2023-04-02T07:16:50.350Z,102042.97
2023-04-02T07:19:21.694Z,102040.72
2023-04-02T07:21:52.450Z,102043.41
2023-04-02T07:24:23.553Z,102043.81
2023-04-02T07:26:51.386Z,102049.59
2023-04-02T07:29:19.877Z,102063.47
2023-04-02T07:31:47.790Z,102076.22
2023-04-02T07:34:15.686Z,102075.81
2023-04-02T07:36:43.468Z,102078.47
2023-04-02T07:39:12.166Z,102079.63
2023-04-02T07:41:53.790Z,102088.91
2023-04-02T07:44:21.620Z,102087.75
2023-04-02T07:46:49.460Z,102092.78
2023-04-02T07:49:17.275Z,102096.63
2023-04-02T07:51:45.120Z,102097.81
2023-04-02T07:54:13.067Z,102102.44
2023-04-02T07:56:40.971Z,102102.44
2023-04-02T07:59:11.227Z,102100.91
2023-04-02T08:01:39.027Z,102113.28
2023-04-02T08:04:07.796Z,102113.66
2023-04-02T08:06:35.780Z,102110.94
2023-04-02T08:09:05.105Z,102113.28
2023-04-02T08:11:32.876Z,102121.38
2023-04-02T08:14:00.675Z,102127.19
2023-04-02T08:16:30.349Z,102129.13
2023-04-02T08:18:58.134Z,102136.09
2023-04-02T08:21:26.130Z,102136.50
2023-04-02T08:23:53.899Z,102141.13
2023-04-02T08:26:21.949Z,102144.59
2023-04-02T08:28:49.737Z,102142.66
2023-04-02T08:31:17.547Z,102157.34
2023-04-02T08:33:46.696Z,102160.44
2023-04-02T08:36:17.435Z,102177.00
2023-04-02T08:39:05.248Z,102173.19
2023-04-02T08:41:39.379Z,102193.25
2023-04-02T08:44:42.588Z,102187.09
2023-04-02T08:47:24.184Z,102194.09
2023-04-02T08:50:09.470Z,102194.88
2023-04-02T08:52:39.786Z,102215.72
2023-04-02T08:55:20.165Z,102208.41
2023-04-02T08:58:07.910Z,102219.63
2023-04-02T09:00:45.253Z,102224.25
2023-04-02T09:03:22.659Z,102224.63
2023-04-02T09:05:53.092Z,102231.22
2023-04-02T09:08:24.608Z,102238.94
2023-04-02T09:10:57.577Z,102240.06
2023-04-02T09:13:28.468Z,102234.31
2023-04-02T09:16:05.060Z,102249.34
2023-04-02T09:18:33.837Z,102246.66
2023-04-02T09:21:11.952Z,102250.19
2023-04-02T09:23:53.624Z,102261.44
2023-04-02T09:26:24.467Z,102258.38
2023-04-02T09:28:57.682Z,102265.03
2023-04-02T09:31:32.863Z,102266.22
2023-04-02T09:34:03.502Z,102274.34
2023-04-02T09:36:38.157Z,102279.41
2023-04-02T09:39:27.939Z,102287.19
2023-04-02T09:42:19.509Z,102290.72
2023-04-02T09:44:47.378Z,102296.94
2023-04-02T09:47:28.795Z,102288.09
2023-04-02T09:49:56.678Z,102288.56
2023-04-02T09:52:29.932Z,102289.75
2023-04-02T09:55:18.962Z,102292.38
2023-04-02T09:57:48.500Z,102291.41
2023-04-02T10:00:41.663Z,102299.97
2023-04-02T10:03:24.102Z,102300.44
2023-04-02T10:06:06.451Z,102302.94
2023-04-02T10:08:36.723Z,102307.56
2023-04-02T10:11:09.008Z,102315.06
2023-04-02T10:13:44.166Z,102319.78
2023-04-02T10:16:17.478Z,102316.94
2023-04-02T10:18:49.513Z,102320.44
2023-04-02T10:21:21.292Z,102323.72
2023-04-02T10:23:50.502Z,102324.16
2023-04-02T10:26:46.829Z,102321.53
2023-04-02T10:29:25.653Z,102320.81
2023-04-02T10:32:01.253Z,102323.00
2023-04-02T10:34:37.752Z,102320.91
2023-04-02T10:37:27.832Z,102329.22
2023-04-02T10:40:01.286Z,102337.44
2023-04-02T10:42:38.284Z,102330.59
2023-04-02T10:45:15.259Z,102330.31
2023-04-02T10:47:50.138Z,102333.78
2023-04-02T10:50:32.524Z,102335.75
2023-04-02T10:53:12.353Z,102333.88
2023-04-02T10:55:45.379Z,102328.09
2023-04-02T10:58:24.615Z,102338.81
2023-04-02T11:00:56.960Z,102332.59
2023-04-02T11:03:33.739Z,102334.56
2023-04-02T11:06:06.967Z,102345.16
2023-04-02T11:08:42.027Z,102352.06
2023-04-02T11:11:15.856Z,102358.75
2023-04-02T11:13:53.390Z,102360.88
2023-04-02T11:16:21.936Z,102365.94
2023-04-02T11:19:22.748Z,102365.75
2023-04-02T11:21:58.567Z,102360.41
2023-04-02T11:24:45.400Z,102353.19
2023-04-02T11:27:22.509Z,102361.66
2023-04-02T11:29:52.814Z,102369.03
2023-04-02T11:32:36.394Z,102365.56
2023-04-02T11:35:36.949Z,102376.16
2023-04-02T11:38:41.978Z,102384.63
2023-04-02T11:41:09.856Z,102388.97
2023-04-02T11:44:01.216Z,102390.81
2023-04-02T11:46:48.786Z,102385.31
2023-04-02T11:49:37.057Z,102398.19
2023-04-02T11:52:20.687Z,102385.63
2023-04-02T11:54:57.882Z,102386.88
2023-04-02T11:57:40.073Z,102397.88
2023-04-02T12:00:32.987Z,102402.50
2023-04-02T12:03:27.760Z,102407.41
2023-04-02T12:06:01.285Z,102398.66
2023-04-02T12:08:56.640Z,102409.22
2023-04-02T12:11:34.088Z,102411.34
2023-04-02T12:14:03.306Z,102415.34
2023-04-02T12:16:36.577Z,102414.13
2023-04-02T12:19:10.406Z,102423.28
2023-04-02T12:21:39.188Z,102423.72
2023-04-02T12:24:16.335Z,102425.97
2023-04-02T12:26:46.481Z,102424.91
2023-04-02T12:29:23.007Z,102428.69
2023-04-02T12:31:53.014Z,102435.78
2023-04-02T12:34:23.080Z,102444.44
2023-04-02T12:37:02.609Z,102429.66
2023-04-02T12:39:32.313Z,102433.16
2023-04-02T12:42:01.376Z,102427.72
2023-04-02T12:44:31.092Z,102429.38
2023-04-02T12:47:00.543Z,102428.78
2023-04-02T12:49:37.847Z,102433.16
2023-04-02T12:52:08.026Z,102440.66
2023-04-02T12:54:40.962Z,102443.72
2023-04-02T12:57:37.193Z,102448.91
2023-04-02T13:00:33.506Z,102451.38
2023-04-02T13:03:20.039Z,102449.81
2023-04-02T13:05:52.090Z,102443.34
2023-04-02T13:08:23.362Z,102443.03
2023-04-02T13:10:56.039Z,102443.53
2023-04-02T13:13:30.189Z,102437.16
2023-04-02T13:16:03.635Z,102452.13
2023-04-02T13:18:34.959Z,102458.84
2023-04-02T13:21:04.040Z,102453.97
2023-04-02T13:23:40.875Z,102456.84
2023-04-02T13:26:16.148Z,102457.63
2023-04-02T13:28:44.503Z,102453.72
2023-04-02T13:31:17.094Z,102455.97
2023-04-02T13:33:46.276Z,102454.66
2023-04-02T13:36:15.708Z,102453.56
2023-04-02T13:38:43.719Z,102458.53
2023-04-02T13:41:21.383Z,102459.59
2023-04-02T13:43:49.980Z,102467.84
2023-04-02T13:46:22.431Z,102468.03
2023-04-02T13:48:53.201Z,102456.88
2023-04-02T13:51:24.219Z,102453.53
2023-04-02T13:53:55.475Z,102466.53
2023-04-02T13:56:24.735Z,102464.63
2023-04-02T13:58:53.047Z,102466.72
2023-04-02T14:01:23.993Z,102475.22
2023-04-02T14:03:55.597Z,102467.94
2023-04-02T14:06:37.866Z,102483.75
2023-04-02T14:09:17.883Z,102484.47
2023-04-02T14:13:01.494Z,102483.47
2023-04-02T14:15:28.991Z,102483.41
2023-04-02T14:18:26.860Z,102493.16
2023-04-02T14:21:10.492Z,102484.78
2023-04-02T14:24:11.016Z,102491.28
2023-04-02T14:31:06.342Z,102490.22
2023-04-02T14:33:48.606Z,102493.38
2023-04-02T14:36:26.581Z,102491.94
2023-04-02T14:38:58.830Z,102505.56
2023-04-02T14:41:42.448Z,102492.78
2023-04-02T14:44:13.386Z,102509.16
2023-04-02T14:46:48.639Z,102505.44
2023-04-02T14:50:06.143Z,102510.88
2023-04-02T14:53:02.029Z,102515.31
2023-04-02T14:58:32.361Z,102517.66
2023-04-02T15:01:39.838Z,102513.69
2023-04-02T15:04:25.320Z,102514.69
2023-04-02T15:07:15.974Z,102515.44
2023-04-02T15:11:18.953Z,102520.22
2023-04-02T15:13:08.898Z,102524.59
2023-04-02T15:15:43.744Z,102533.28
2023-04-02T15:18:14.664Z,102529.81
2023-04-02T15:20:53.170Z,102533.38
2023-04-02T15:23:33.590Z,102535.25
2023-04-02T15:26:13.364Z,102539.28
2023-04-02T15:28:47.631Z,102532.28
2023-04-02T15:31:15.833Z,102537.56
2023-04-02T15:33:45.604Z,102534.38
2023-04-02T15:36:54.639Z,102529.03
2023-04-02T15:39:46.700Z,102533.00
2023-04-02T15:42:21.901Z,102543.97
2023-04-02T15:45:16.326Z,102535.88
2023-04-02T15:47:58.068Z,102538.63
2023-04-02T15:50:44.150Z,102548.38
2023-04-02T15:53:28.345Z,102543.34
2023-04-02T15:56:06.128Z,102543.75
2023-04-02T15:58:47.980Z,102540.38
2023-04-02T16:01:24.208Z,102539.91
2023-04-02T16:04:31.746Z,102536.66
2023-04-02T16:07:42.730Z,102544.94
2023-04-02T16:10:41.003Z,102543.09
2023-04-02T16:14:00.111Z,102556.22
2023-04-02T16:17:11.188Z,102557.09
2023-04-02T16:23:03.337Z,102568.78
2023-04-02T16:25:40.072Z,102571.78
2023-04-02T16:28:20.277Z,102578.25
2023-04-02T16:30:57.264Z,102573.34
2023-04-02T16:33:37.469Z,102571.44
2023-04-02T16:36:22.592Z,102579.91
2023-04-02T16:38:59.441Z,102586.09
2023-04-02T16:41:45.536Z,102585.53
2023-04-02T16:44:27.070Z,102589.88
2023-04-02T16:47:05.151Z,102600.59
2023-04-02T16:49:39.954Z,102599.13
2023-04-02T16:52:23.263Z,102602.53
2023-04-02T16:55:03.753Z,102603.03
2023-04-02T16:57:41.293Z,102613.59
2023-04-02T17:00:19.429Z,102612.75
2023-04-02T17:03:03.198Z,102619.69
2023-04-02T17:05:32.937Z,102620.22
2023-04-02T17:08:17.173Z,102621.16
2023-04-02T17:10:51.717Z,102633.22
2023-04-02T17:13:25.235Z,102630.31
2023-04-02T17:16:03.576Z,102637.50
2023-04-02T17:18:32.576Z,102643.75
2023-04-02T17:21:05.472Z,102647.34
2023-04-02T17:23:55.287Z,102643.91
2023-04-02T17:26:27.123Z,102650.63
2023-04-02T17:28:56.193Z,102653.00
2023-04-02T17:31:26.272Z,102655.41
2023-04-02T17:33:55.492Z,102658.91
2023-04-02T17:36:42.881Z,102668.31
2023-04-02T17:39:22.939Z,102668.13
2023-04-02T17:41:57.200Z,102675.72
2023-04-02T17:44:45.206Z,102670.00
2023-04-02T17:47:18.874Z,102676.88
2023-04-02T17:49:56.443Z,102685.16
2023-04-02T17:52:29.760Z,102686.75
2023-04-02T17:55:15.346Z,102692.91
2023-04-02T17:57:57.087Z,102699.63
2023-04-02T18:00:39.562Z,102692.34
2023-04-02T18:03:47.513Z,102703.75
2023-04-02T18:06:19.927Z,102703.19
2023-04-02T18:09:05.298Z,102716.53
2023-04-02T18:11:46.171Z,102717.38
2023-04-02T18:14:31.322Z,102717.50
2023-04-02T18:17:06.139Z,102714.41
2023-04-02T18:19:41.189Z,102722.50
2023-04-02T18:22:15.915Z,102720.34
2023-04-02T18:25:00.346Z,102731.75
2023-04-02T18:27:56.399Z,102735.13
2023-04-02T18:30:28.785Z,102741.28
2023-04-02T18:33:09.196Z,102745.09
2023-04-02T18:35:44.531Z,102754.44
2023-04-02T18:38:30.326Z,102756.44
2023-04-02T18:41:05.275Z,102751.41
2023-04-02T18:43:49.998Z,102762.34
2023-04-02T18:46:29.383Z,102764.44
2023-04-02T18:49:01.776Z,102769.22
2023-04-02T18:51:33.815Z,102763.44
2023-04-02T18:54:13.364Z,102772.09
2023-04-02T18:56:42.532Z,102779.56
2023-04-02T18:59:29.442Z,102776.47
2023-04-02T19:02:01.274Z,102784.78
2023-04-02T19:04:33.711Z,102786.38
2023-04-02T19:07:07.670Z,102798.56
2023-04-02T19:09:56.036Z,102794.69
2023-04-02T19:12:35.299Z,102800.53
2023-04-02T19:15:31.028Z,102811.16
2023-04-02T19:18:22.460Z,102819.69
2023-04-02T19:21:15.194Z,102819.78
2023-04-02T19:24:06.322Z,102831.88
2023-04-02T19:30:40.352Z,102835.44
2023-04-02T19:33:33.468Z,102831.56
2023-04-02T19:40:02.104Z,102826.22
2023-04-02T19:42:53.528Z,102833.34
2023-04-02T19:45:44.666Z,102840.38
2023-04-02T19:52:29.428Z,102840.03
2023-04-02T19:59:56.277Z,102840.84
2023-04-02T20:03:12.515Z,102850.25
2023-04-02T20:07:05.479Z,102846.41
2023-04-02T20:09:23.881Z,102856.56
2023-04-02T20:12:56.500Z,102853.06
2023-04-02T20:15:58.545Z,102863.25
2023-04-02T20:18:47.650Z,102865.19
2023-04-02T20:22:44.983Z,102862.09
2023-04-02T20:32:22.646Z,102883.91
2023-04-02T20:34:51.874Z,102883.91
2023-04-02T20:37:19.670Z,102887.41
2023-04-02T20:39:47.853Z,102897.09
2023-04-02T20:42:15.668Z,102900.19
2023-04-02T20:44:43.467Z,102895.53
2023-04-02T20:47:12.183Z,102899.44
2023-04-02T20:49:39.949Z,102906.03
2023-04-02T20:52:09.164Z,102908.34
2023-04-02T20:54:36.940Z,102916.88
2023-04-02T20:57:05.062Z,102916.50
2023-04-02T20:59:32.888Z,102925.00
2023-04-02T21:02:00.752Z,102916.84
2023-04-02T21:04:29.000Z,102926.94
2023-04-02T21:06:57.508Z,102917.59
2023-04-02T21:09:26.962Z,102933.88
2023-04-02T21:11:54.800Z,102937.75
2023-04-02T21:14:22.607Z,102938.09
2023-04-02T21:16:50.434Z,102938.88
2023-04-02T21:19:18.244Z,102943.91
2023-04-02T21:21:46.239Z,102948.53
2023-04-02T21:24:14.171Z,102946.19
2023-04-02T21:26:43.361Z,102943.44
2023-04-02T21:29:12.580Z,102953.09
2023-04-02T21:31:41.620Z,102951.16
2023-04-02T21:34:10.587Z,102954.63
2023-04-02T21:36:41.863Z,102960.03
2023-04-02T21:39:10.670Z,102959.56
2023-04-02T21:41:40.556Z,102962.28
2023-04-02T21:44:13.704Z,102967.69
2023-04-02T21:46:42.918Z,102961.03
2023-04-02T21:49:12.615Z,102962.91
2023-04-02T21:51:42.630Z,102967.16
2023-04-02T21:54:10.952Z,102973.72
2023-04-02T21:56:40.403Z,102968.66
2023-04-02T21:59:11.706Z,102970.19
2023-04-02T22:01:40.811Z,102964.34
2023-04-02T22:04:10.349Z,102971.31
2023-04-02T22:06:40.426Z,102962.75
2023-04-02T22:09:11.497Z,102966.66
2023-04-02T22:11:42.015Z,102966.59
2023-04-02T22:14:11.517Z,102973.91
2023-04-02T22:16:40.582Z,102976.97
2023-04-02T22:19:11.219Z,102970.31
2023-04-02T22:21:40.025Z,102969.47
2023-04-02T22:24:10.307Z,102974.53
2023-04-02T22:26:38.548Z,102973.28
2023-04-02T22:29:06.627Z,102968.63
2023-04-02T22:31:35.978Z,102968.22
2023-04-02T22:34:06.553Z,102970.09
2023-04-02T22:36:34.640Z,102970.84
2023-04-02T22:39:05.429Z,102974.25
2023-04-02T22:41:33.996Z,102969.97
2023-04-02T22:44:02.735Z,102966.06
2023-04-02T22:46:31.352Z,102974.16
2023-04-02T22:49:00.582Z,102967.16
2023-04-02T22:51:28.901Z,102979.50
2023-04-02T22:53:57.237Z,102976.00
2023-04-02T22:56:28.481Z,102977.91
2023-04-02T22:58:56.270Z,102982.13
2023-04-02T23:01:27.135Z,102985.97
2023-04-02T23:03:56.329Z,102992.91
2023-04-02T23:06:28.428Z,102994.38
2023-04-02T23:08:56.352Z,102993.94
2023-04-02T23:11:25.916Z,102992.75
2023-04-02T23:13:56.649Z,102995.03
2023-04-02T23:16:27.074Z,102988.78
2023-04-02T23:18:56.529Z,102994.22
2023-04-02T23:21:26.563Z,102989.13
2023-04-02T23:23:54.614Z,102986.75
2023-04-02T23:26:24.016Z,102988.09
2023-04-02T23:28:52.346Z,102991.53
2023-04-02T23:31:21.918Z,102993.81
2023-04-02T23:33:50.474Z,102994.47
2023-04-02T23:36:22.406Z,102997.13
2023-04-02T23:38:54.944Z,103000.50
2023-04-02T23:41:25.364Z,103000.47
2023-04-02T23:43:53.752Z,103002.75
2023-04-02T23:46:22.542Z,102994.94
2023-04-02T23:48:51.403Z,103000.66
2023-04-02T23:51:19.747Z,102996.69
2023-04-02T23:53:47.625Z,102997.34
2023-04-02T23:56:16.769Z,102996.94
2023-04-02T23:58:44.634Z,103004.28
